Time;durP1;ratioP1;P1;durP2;ratioP2;P2;SDS_P1;SDS_P2;PMS_P1;PMS_P2;Temp;Humidity;BMP_temperature;BMP_pressure;BME280_temperature;BME280_humidity;BME280_pressure;Samples;Min_cycle;Max_cycle;Signal;HPM_P1;HPM_P2
2023/12/05 00:04:05;;;;;;;22.10;9.07;;;-0.80;99.90;;;-3.11;100.00;100347.16;10400901;27;96749;-86
2023/12/05 00:09:11;;;;;;;26.30;9.90;;;-0.90;99.90;;;-3.06;100.00;100354.72;10438732;27;96549;-86
2023/12/05 00:14:15;;;;;;;19.37;9.70;;;-0.90;99.90;;;-3.09;100.00;100344.50;10446825;27;96598;-86
2023/12/05 00:19:18;;;;;;;22.43;10.47;;;-0.90;99.90;;;-3.05;100.00;100353.81;10403892;28;96591;-86
2023/12/05 00:24:23;;;;;;;23.70;9.70;;;-0.90;99.90;;;-3.05;100.00;100361.63;10400343;27;96484;-85
2023/12/05 00:29:26;;;;;;;19.30;9.20;;;-0.90;99.90;;;-3.07;100.00;100343.47;10399412;27;96633;-86
2023/12/05 00:34:30;;;;;;;21.57;8.97;;;-0.90;99.90;;;-3.11;100.00;100346.34;10426955;27;96611;-85
2023/12/05 00:39:34;;;;;;;20.23;9.00;;;-0.90;99.90;;;-3.06;100.00;100346.91;10428294;27;96901;-86
2023/12/05 00:44:38;;;;;;;19.87;9.37;;;-0.90;99.90;;;-3.05;100.00;100354.66;10461639;27;97077;-86
2023/12/05 00:49:42;;;;;;;22.47;9.00;;;-0.90;99.90;;;-3.07;100.00;100347.84;10461045;27;97222;-85
2023/12/05 00:54:45;;;;;;;22.17;10.13;;;-0.90;99.90;;;-3.06;100.00;100355.59;10431226;27;96621;-86
2023/12/05 00:59:49;;;;;;;18.63;9.47;;;-0.90;99.90;;;-3.06;100.00;100347.78;10384789;27;96897;-86
2023/12/05 01:04:52;;;;;;;21.73;10.43;;;-0.90;99.90;;;-3.14;100.00;100339.50;10440355;27;96984;-86
2023/12/05 01:09:56;;;;;;;19.13;9.23;;;-0.90;99.90;;;-3.06;100.00;100339.13;10439239;27;97091;-86
2023/12/05 01:15:00;;;;;;;23.00;9.67;;;-0.90;99.90;;;-3.14;100.00;100321.31;10423473;27;96580;-86
2023/12/05 01:20:07;;;;;;;23.37;10.07;;;-0.80;99.90;;;-3.05;100.00;100336.47;10399883;28;96478;-87
2023/12/05 01:25:11;;;;;;;19.40;9.43;;;-0.80;99.90;;;-3.15;100.00;100308.41;10448032;27;96657;-86
2023/12/05 01:30:14;;;;;;;21.30;9.00;;;-0.80;99.90;;;-3.18;100.00;100304.19;10440560;27;96624;-86
2023/12/05 01:35:18;;;;;;;24.47;10.20;;;-0.80;99.90;;;-3.02;100.00;100325.88;10422705;27;96472;-87
2023/12/05 01:40:21;;;;;;;20.60;8.70;;;-0.80;99.90;;;-3.08;100.00;100305.41;10448453;27;97067;-86
2023/12/05 01:45:25;;;;;;;21.80;9.50;;;-0.80;99.90;;;-3.15;100.00;100287.59;10469230;27;96585;-86
2023/12/05 01:50:29;;;;;;;19.53;9.23;;;-0.90;99.90;;;-3.12;100.00;100301.31;10469538;27;96712;-87
2023/12/05 01:55:33;;;;;;;23.40;9.93;;;-0.90;99.90;;;-3.17;100.00;100279.06;10460378;27;96543;-86
2023/12/05 02:00:40;;;;;;;23.40;9.83;;;-1.00;99.90;;;-3.22;100.00;100262.84;10398475;27;97106;-86
2023/12/05 02:05:44;;;;;;;24.70;10.47;;;-1.00;99.90;;;-3.25;100.00;100248.25;10446367;27;96507;-86
2023/12/05 02:10:49;;;;;;;20.30;9.27;;;-1.00;99.90;;;-3.26;100.00;100238.78;10416740;27;96699;-87
2023/12/05 02:16:11;;;;;;;20.30;9.60;;;-1.00;99.90;;;-3.30;100.00;100229.44;10428388;27;96646;-87
2023/12/05 02:21:30;;;;;;;23.10;10.45;;;-1.10;99.90;;;-3.32;100.00;100223.50;10461543;27;96570;-87
2023/12/05 02:26:56;;;;;;;25.23;10.73;;;-1.10;99.90;;;-3.28;100.00;100217.22;10456670;27;96615;-86
2023/12/05 02:32:00;;;;;;;18.80;8.23;;;-1.10;99.90;;;-3.32;100.00;100206.16;10431932;27;96613;-86
2023/12/05 02:37:40;;;;;;;23.73;10.07;;;-1.10;99.90;;;-3.33;100.00;100204.47;10391550;27;96831;-86
2023/12/05 02:42:47;;;;;;;25.53;11.47;;;-1.10;99.90;;;-3.32;100.00;100213.94;10461886;27;96613;-85
2023/12/05 02:47:51;;;;;;;26.27;10.83;;;-1.10;99.90;;;-3.35;100.00;100208.91;10467958;27;96602;-86
2023/12/05 02:52:55;;;;;;;24.13;10.53;;;-1.10;99.90;;;-3.36;100.00;100190.78;10483987;27;96562;-86
2023/12/05 02:57:58;;;;;;;24.33;10.93;;;-1.10;99.90;;;-3.29;100.00;100195.59;10473946;27;96498;-86
2023/12/05 03:03:02;;;;;;;23.73;10.73;;;-1.10;99.90;;;-3.28;100.00;100188.66;10427943;27;96617;-86
2023/12/05 03:08:06;;;;;;;22.53;10.17;;;-1.10;99.90;;;-3.27;100.00;100185.13;10404917;28;96627;-86
2023/12/05 03:13:09;;;;;;;25.23;10.60;;;-1.00;99.90;;;-3.20;100.00;100191.66;10419265;27;96580;-85
2023/12/05 03:18:13;;;;;;;23.53;10.37;;;-1.00;99.90;;;-3.17;100.00;100185.50;10475644;27;96685;-85
2023/12/05 03:23:18;;;;;;;19.23;9.50;;;-1.00;99.90;;;-3.17;100.00;100181.13;10447044;27;96773;-86
2023/12/05 03:28:22;;;;;;;20.67;9.23;;;-1.00;99.90;;;-3.19;100.00;100167.34;10436953;27;96553;-86
2023/12/05 03:33:25;;;;;;;25.00;10.27;;;-1.00;99.90;;;-3.15;100.00;100174.06;10434806;27;96609;-85
2023/12/05 03:38:29;;;;;;;23.60;10.00;;;-0.90;99.90;;;-3.16;100.00;100172.41;10449053;27;96731;-86
2023/12/05 03:43:32;;;;;;;22.00;9.90;;;-0.90;99.90;;;-3.13;100.00;100167.03;10444109;27;96921;-86
2023/12/05 03:48:36;;;;;;;23.00;10.63;;;-0.90;99.90;;;-3.10;100.00;100166.03;10414248;27;98111;-86
2023/12/05 03:53:40;;;;;;;20.37;8.67;;;-0.90;99.90;;;-3.14;100.00;100159.31;10447384;27;96479;-85
2023/12/05 03:58:44;;;;;;;24.50;9.57;;;-0.90;99.90;;;-3.07;100.00;100156.28;10437618;27;96673;-85
2023/12/05 04:03:48;;;;;;;24.60;10.17;;;-0.90;99.90;;;-3.06;100.00;100158.00;10447669;27;96570;-85
2023/12/05 04:08:52;;;;;;;21.57;9.53;;;-0.80;99.90;;;-3.14;100.00;100131.56;10454297;27;96664;-85
2023/12/05 04:13:55;;;;;;;25.00;10.30;;;-0.80;99.90;;;-3.04;100.00;100137.13;10446112;27;96899;-86
2023/12/05 04:18:59;;;;;;;21.73;10.33;;;-0.80;99.90;;;-3.01;100.00;100139.53;10399375;27;96632;-86
2023/12/05 04:24:03;;;;;;;29.17;11.57;;;-0.80;99.90;;;-3.00;100.00;100146.41;10416313;27;96706;-86
2023/12/05 04:29:06;;;;;;;22.10;8.67;;;-0.80;99.90;;;-3.01;100.00;100131.72;10431400;27;96534;-86
2023/12/05 04:34:10;;;;;;;24.43;10.47;;;-0.80;99.90;;;-2.97;100.00;100133.25;10441059;27;96836;-86
2023/12/05 04:39:13;;;;;;;18.13;9.70;;;-0.80;99.90;;;-3.04;100.00;100111.97;10416682;27;96604;-86
2023/12/05 04:44:17;;;;;;;24.07;10.07;;;-0.70;99.90;;;-3.01;100.00;100116.13;10483489;27;96635;-86
2023/12/05 04:49:20;;;;;;;21.33;8.67;;;-0.70;99.90;;;-2.94;100.00;100130.47;10432865;27;96614;-86
2023/12/05 04:54:24;;;;;;;21.00;8.40;;;-0.70;99.90;;;-2.96;100.00;100137.53;10442910;27;96552;-85
2023/12/05 04:59:28;;;;;;;18.13;8.97;;;-0.70;99.90;;;-2.94;100.00;100130.47;10431953;27;97760;-87
2023/12/05 05:04:32;;;;;;;24.93;9.93;;;-0.70;99.90;;;-2.92;100.00;100130.41;10467228;27;96578;-87
2023/12/05 05:09:36;;;;;;;22.13;9.33;;;-0.70;99.90;;;-2.91;100.00;100130.31;10453824;27;96530;-87
2023/12/05 05:14:40;;;;;;;19.43;8.30;;;-0.70;99.90;;;-2.97;100.00;100121.09;10449214;27;96719;-86
2023/12/05 05:19:44;;;;;;;15.93;7.47;;;-0.70;99.90;;;-2.88;100.00;100129.31;10454810;27;96677;-87
2023/12/05 05:24:48;;;;;;;26.00;10.27;;;-0.70;99.90;;;-2.89;100.00;100125.88;10434579;27;96497;-86
2023/12/05 05:29:51;;;;;;;20.60;8.57;;;-0.70;99.90;;;-2.90;100.00;100120.75;10430266;27;97680;-86
2023/12/05 05:34:55;;;;;;;23.90;10.33;;;-0.70;99.90;;;-2.93;100.00;100126.13;10407401;27;96568;-87
2023/12/05 05:39:59;;;;;;;19.50;8.73;;;-0.70;99.90;;;-2.91;100.00;100135.53;10427149;27;96644;-87
2023/12/05 05:45:03;;;;;;;23.40;9.17;;;-0.70;99.90;;;-2.91;100.00;100129.47;10413438;27;96575;-86
2023/12/05 05:50:08;;;;;;;22.43;10.27;;;-0.70;99.90;;;-2.88;100.00;100131.91;10438734;27;96710;-86
2023/12/05 05:55:12;;;;;;;16.33;8.67;;;-0.70;99.90;;;-2.87;100.00;100131.84;10483570;27;96656;-86
2023/12/05 06:00:16;;;;;;;28.87;10.97;;;-0.60;99.90;;;-2.86;100.00;100122.28;10475077;27;96592;-86
2023/12/05 06:05:19;;;;;;;25.63;11.00;;;-0.60;99.90;;;-2.82;100.00;100128.97;10463555;27;96612;-86
2023/12/05 06:10:23;;;;;;;29.00;10.77;;;-0.60;99.90;;;-2.81;100.00;100126.31;10447169;27;96532;-86
2023/12/05 06:15:27;;;;;;;23.80;10.60;;;-0.60;99.90;;;-2.80;100.00;100143.56;10463132;27;97921;-86
2023/12/05 06:20:30;;;;;;;27.40;11.43;;;-0.60;99.90;;;-2.75;100.00;100132.94;10432277;27;96576;-86
2023/12/05 06:25:34;;;;;;;25.17;9.87;;;-0.50;99.90;;;-2.86;100.00;100117.06;10425059;27;98241;-86
2023/12/05 06:30:38;;;;;;;22.70;10.20;;;-0.50;99.90;;;-2.77;100.00;100133.00;10436677;27;97632;-86
2023/12/05 06:35:41;;;;;;;23.97;10.27;;;-0.50;99.90;;;-2.77;100.00;100130.38;10451566;27;97610;-86
2023/12/05 06:40:45;;;;;;;29.40;12.63;;;-0.50;99.90;;;-2.78;100.00;100136.50;10469442;27;98049;-86
2023/12/05 06:45:48;;;;;;;27.50;11.17;;;-0.50;99.90;;;-2.70;100.00;100144.75;10462961;27;96522;-86
2023/12/05 06:50:52;;;;;;;23.10;10.97;;;-0.50;99.90;;;-2.67;100.00;100142.91;10454976;27;97934;-86
2023/12/05 06:55:56;;;;;;;22.77;10.43;;;-0.50;99.90;;;-2.74;100.00;100122.44;10402305;28;96543;-84
2023/12/05 07:00:59;;;;;;;24.97;10.70;;;-0.50;99.90;;;-2.66;100.00;100129.78;10404204;27;96446;-85
2023/12/05 07:06:05;;;;;;;24.73;11.33;;;-0.40;99.90;;;-2.61;100.00;100140.78;10440950;27;96702;-86
2023/12/05 07:11:09;;;;;;;24.97;10.83;;;-0.40;99.90;;;-2.63;100.00;100131.41;10437160;27;96625;-86
2023/12/05 07:16:13;;;;;;;22.63;9.30;;;-0.40;99.90;;;-2.55;100.00;100147.41;10427576;27;96688;-86
2023/12/05 07:21:16;;;;;;;24.57;10.70;;;-0.40;99.90;;;-2.55;100.00;100143.03;10441399;27;97488;-86
2023/12/05 07:26:20;;;;;;;25.27;10.90;;;-0.30;99.90;;;-2.47;100.00;100156.44;10433758;27;96540;-86
2023/12/05 07:31:24;;;;;;;20.13;8.87;;;-0.30;99.90;;;-2.42;100.00;100153.59;10450530;27;96627;-87
2023/12/05 07:36:27;;;;;;;21.67;10.40;;;-0.20;99.90;;;-2.35;100.00;100159.28;10418356;27;96613;-87
2023/12/05 07:41:33;;;;;;;21.73;10.07;;;-0.20;99.90;;;-2.26;100.00;100174.41;10433494;27;98020;-86
2023/12/05 07:46:40;;;;;;;21.57;10.47;;;-0.10;99.90;;;-2.19;100.00;100173.13;10433354;27;97811;-86
2023/12/05 07:51:44;;;;;;;21.27;9.27;;;0.00;99.90;;;-2.15;100.00;100161.63;10401543;27;96631;-86
2023/12/05 07:56:48;;;;;;;32.00;12.83;;;0.10;99.90;;;-2.09;100.00;100161.25;10400168;27;96493;-86
2023/12/05 08:01:53;;;;;;;26.10;11.57;;;0.10;99.90;;;-2.07;100.00;100140.34;10412423;27;96673;-86
2023/12/05 08:06:56;;;;;;;27.13;12.03;;;0.20;99.90;;;-1.93;100.00;100138.59;10474175;27;98247;-86
2023/12/05 08:12:00;;;;;;;21.60;9.73;;;0.30;99.90;;;-1.88;100.00;100133.97;10441847;27;96462;-86
2023/12/05 08:17:04;;;;;;;20.00;9.03;;;0.30;99.90;;;-1.86;100.00;100128.66;10418218;27;96657;-85
2023/12/05 08:22:07;;;;;;;22.27;10.47;;;0.40;99.90;;;-1.79;100.00;100142.19;10480453;27;97896;-85
2023/12/05 08:27:11;;;;;;;25.77;10.33;;;0.40;99.90;;;-1.79;100.00;100140.41;10458999;27;97829;-86
2023/12/05 08:32:14;;;;;;;26.10;12.77;;;0.40;99.90;;;-1.72;100.00;100143.47;10473799;27;96586;-84
2023/12/05 08:37:18;;;;;;;24.30;10.53;;;0.40;99.90;;;-1.66;100.00;100149.16;10450367;27;96408;-86
2023/12/05 08:42:21;;;;;;;28.73;11.43;;;0.50;99.90;;;-1.64;100.00;100152.50;10440615;27;96731;-86
2023/12/05 08:47:25;;;;;;;26.17;11.30;;;0.50;99.90;;;-1.56;100.00;100156.41;10430850;27;96849;-86
2023/12/05 08:52:29;;;;;;;26.20;11.57;;;0.60;99.90;;;-1.51;100.00;100157.81;10403470;27;97131;-87
2023/12/05 08:57:33;;;;;;;23.60;10.77;;;0.70;99.90;;;-1.42;100.00;100146.00;10400616;27;96586;-87
2023/12/05 09:02:37;;;;;;;25.17;11.67;;;0.80;99.90;;;-1.43;100.00;100142.56;10439737;27;97841;-90
2023/12/05 09:07:41;;;;;;;21.83;10.40;;;0.80;99.90;;;-1.36;100.00;100149.09;10470598;27;96450;-86
2023/12/05 09:12:45;;;;;;;30.37;12.73;;;0.80;99.90;;;-1.27;100.00;100149.44;10440878;27;96738;-86
2023/12/05 09:17:48;;;;;;;25.17;12.13;;;0.90;99.90;;;-1.23;100.00;100136.13;10448110;27;96585;-86
2023/12/05 09:22:52;;;;;;;27.10;12.67;;;1.00;99.90;;;-1.18;100.00;100134.09;10466610;27;96724;-87
2023/12/05 09:28:04;;;;;;;23.97;11.37;;;1.00;99.90;;;-1.14;100.00;100132.09;10497637;27;96572;-86
2023/12/05 09:33:07;;;;;;;21.03;9.77;;;1.10;99.90;;;-1.10;100.00;100129.22;10497951;27;96650;-86
2023/12/05 09:38:11;;;;;;;21.20;10.60;;;1.10;99.90;;;-1.00;100.00;100128.66;10448236;27;96436;-86
2023/12/05 09:43:21;;;;;;;26.03;12.57;;;1.20;99.90;;;-0.99;100.00;100118.13;10453291;27;96543;-86
2023/12/05 09:48:31;;;;;;;24.20;12.70;;;1.20;99.90;;;-0.95;100.00;100114.41;10442689;27;96676;-85
2023/12/05 09:53:36;;;;;;;28.13;13.03;;;1.30;99.90;;;-0.91;100.00;100115.84;10419978;27;96507;-84
2023/12/05 09:58:46;;;;;;;26.50;12.07;;;1.30;99.90;;;-0.78;100.00;100115.09;10468395;27;96458;-84
2023/12/05 10:03:58;;;;;;;24.50;11.00;;;1.30;99.90;;;-0.70;100.00;100110.22;10466084;27;96535;-84
2023/12/05 10:09:06;;;;;;;26.00;10.90;;;1.50;99.90;;;-0.75;100.00;100089.63;10467179;27;96569;-85
2023/12/05 10:14:10;;;;;;;25.70;11.23;;;1.50;99.90;;;-0.62;100.00;100089.69;10463721;27;96694;-85
2023/12/05 10:19:14;;;;;;;25.93;12.73;;;1.60;99.90;;;-0.63;100.00;100075.81;10478973;27;96961;-85
2023/12/05 10:24:18;;;;;;;40.83;16.00;;;1.60;99.90;;;-0.62;100.00;100048.75;10471668;27;96525;-85
2023/12/05 10:29:39;;;;;;;24.97;10.93;;;1.60;99.90;;;-0.54;100.00;100050.84;10442795;27;97324;-84
2023/12/05 10:34:51;;;;;;;23.57;11.43;;;1.70;99.90;;;-0.40;100.00;100053.41;10422361;27;96709;-85
2023/12/05 10:39:58;;;;;;;27.50;11.43;;;1.80;99.90;;;-0.41;100.00;100037.84;10410329;27;96887;-85
2023/12/05 10:45:05;;;;;;;22.53;9.60;;;1.90;99.90;;;-0.41;100.00;100036.09;10427438;27;97377;-85
2023/12/05 10:50:09;;;;;;;22.30;9.83;;;1.80;99.90;;;-0.35;100.00;100034.84;10415962;27;96619;-85
2023/12/05 10:55:24;;;;;;;27.97;10.60;;;1.90;99.90;;;-0.35;100.00;100029.63;10451521;27;96683;-85
2023/12/05 11:00:29;;;;;;;24.70;11.83;;;1.80;99.90;;;-0.34;100.00;100018.22;10468742;27;96666;-86
2023/12/05 11:05:34;;;;;;;23.53;10.87;;;1.90;99.90;;;-0.35;100.00;100017.41;10440893;27;96573;-84
2023/12/05 11:10:39;;;;;;;30.07;12.70;;;1.90;99.90;;;-0.29;100.00;100023.97;10414328;27;97051;-86
2023/12/05 11:15:48;;;;;;;25.63;11.23;;;1.90;99.90;;;-0.27;100.00;100022.94;10428439;27;96650;-86
2023/12/05 11:21:19;;;;;;;29.27;12.27;;;2.00;99.90;;;-0.20;100.00;100022.50;10431379;27;97829;-86
2023/12/05 11:27:02;;;;;;;29.73;12.53;;;2.00;99.90;;;-0.16;100.00;100024.00;10444888;27;96614;-83
2023/12/05 11:32:28;;;;;;;26.02;10.85;;;2.10;99.90;;;-0.10;100.00;100018.34;10447920;27;96530;-84
2023/12/05 11:37:43;;;;;;;112.53;28.10;;;2.10;99.90;;;-0.04;100.00;100010.09;10446465;27;96985;-84
2023/12/05 11:43:10;;;;;;;32.23;13.47;;;2.20;99.90;;;0.03;100.00;100018.34;10450723;27;97635;-83
2023/12/05 11:48:23;;;;;;;23.43;10.73;;;2.30;99.90;;;0.04;100.00;100010.41;10457567;27;96623;-85
2023/12/05 11:53:28;;;;;;;26.63;12.47;;;2.30;99.90;;;-0.09;100.00;99988.66;10420032;27;96566;-85
2023/12/05 11:58:34;;;;;;;24.63;11.47;;;2.30;99.90;;;0.08;100.00;100014.47;10457210;27;97507;-84
2023/12/05 12:03:49;;;;;;;20.30;9.80;;;2.30;99.90;;;-0.02;100.00;100013.44;10439085;27;96542;-85
2023/12/05 12:08:53;;;;;;;21.30;10.20;;;2.30;99.90;;;-0.02;100.00;100006.41;10435355;27;96632;-84
2023/12/05 12:14:10;;;;;;;26.00;11.40;;;2.20;99.90;;;-0.02;100.00;100008.19;10424517;27;96579;-84
2023/12/05 12:19:16;;;;;;;23.60;11.67;;;2.20;99.90;;;-0.08;100.00;100009.47;10457028;27;96903;-84
2023/12/05 12:24:22;;;;;;;24.43;10.43;;;2.20;99.90;;;-0.12;100.00;100001.94;10427851;27;96695;-84
2023/12/05 12:29:26;;;;;;;27.50;11.70;;;2.10;99.90;;;-0.13;100.00;100003.69;10457772;27;96697;-84
2023/12/05 12:34:30;;;;;;;21.47;10.23;;;2.10;99.90;;;-0.07;100.00;99999.84;10402868;28;96983;-84
2023/12/05 12:39:36;;;;;;;27.87;12.43;;;2.20;99.90;;;-0.14;100.00;99991.59;10424930;27;96655;-84
2023/12/05 12:44:39;;;;;;;32.33;11.47;;;2.20;99.90;;;-0.14;100.00;99994.19;10425305;27;96483;-84
2023/12/05 12:49:43;;;;;;;25.70;11.87;;;2.10;99.90;;;-0.13;100.00;99995.88;10407715;27;96546;-84
2023/12/05 12:54:50;;;;;;;24.27;12.10;;;2.10;99.90;;;-0.21;100.00;99992.13;10458418;27;96728;-84
2023/12/05 12:59:56;;;;;;;31.93;12.10;;;2.10;99.90;;;-0.32;100.00;99980.63;10462997;27;96668;-84
2023/12/05 13:05:38;;;;;;;27.47;12.07;;;2.00;99.90;;;-0.28;100.00;99996.94;10446794;27;96489;-84
2023/12/05 13:10:43;;;;;;;29.77;12.83;;;1.90;99.90;;;-0.30;100.00;99997.03;10457461;27;96461;-84
2023/12/05 13:15:48;;;;;;;28.77;11.97;;;1.90;99.90;;;-0.38;100.00;99995.88;10490009;27;96504;-84
2023/12/05 13:20:54;;;;;;;27.23;10.67;;;1.80;99.90;;;-0.40;100.00;100002.97;10415359;27;96613;-84
2023/12/05 13:25:58;;;;;;;26.17;12.00;;;1.80;99.90;;;-0.39;100.00;99992.44;10409451;27;96795;-84
2023/12/05 13:31:01;;;;;;;25.87;10.87;;;1.80;99.90;;;-0.35;100.00;99993.06;10472550;27;96631;-84
2023/12/05 13:36:06;;;;;;;52.60;19.10;;;1.80;99.90;;;-0.38;100.00;99986.25;10453058;27;96545;-84
2023/12/05 13:41:09;;;;;;;30.67;13.73;;;1.80;99.90;;;-0.40;100.00;99985.53;10453821;27;96628;-84
2023/12/05 13:46:14;;;;;;;31.40;13.83;;;1.80;99.90;;;-0.39;100.00;99981.97;10444337;27;96633;-84
2023/12/05 13:51:18;;;;;;;27.07;12.07;;;1.80;99.90;;;-0.41;100.00;99981.25;10460799;27;96572;-84
2023/12/05 13:56:27;;;;;;;32.03;16.47;;;1.80;99.90;;;-0.47;100.00;99980.84;10454330;27;96908;-84
2023/12/05 14:01:30;;;;;;;29.20;13.63;;;1.70;99.90;;;-0.47;100.00;99991.28;10450156;27;96544;-84
2023/12/05 14:06:34;;;;;;;28.57;12.53;;;1.70;99.90;;;-0.48;100.00;99993.06;10405279;27;96554;-83
2023/12/05 14:11:43;;;;;;;29.90;12.60;;;1.70;99.90;;;-0.51;100.00;99990.63;10434858;27;96718;-83
2023/12/05 14:16:47;;;;;;;35.23;15.17;;;1.60;99.90;;;-0.53;100.00;99999.53;10448311;27;96525;-83
2023/12/05 14:21:53;;;;;;;31.20;13.03;;;1.60;99.90;;;-0.55;100.00;99997.81;10420269;27;96489;-83
2023/12/05 14:26:57;;;;;;;38.77;15.00;;;1.60;99.90;;;-0.56;100.00;99995.31;10412223;27;96918;-83
2023/12/05 14:32:01;;;;;;;31.10;15.00;;;1.60;99.90;;;-0.66;100.00;99984.69;10422505;27;96518;-83
2023/12/05 14:37:04;;;;;;;25.50;12.20;;;1.60;99.90;;;-0.57;100.00;100006.69;10422944;27;96517;-83
2023/12/05 14:42:08;;;;;;;25.47;11.17;;;1.60;99.90;;;-0.58;100.00;100008.47;10407716;27;96555;-83
2023/12/05 14:47:11;;;;;;;27.13;12.37;;;1.50;99.90;;;-0.63;100.00;100010.56;10427340;27;98099;-83
2023/12/05 14:52:15;;;;;;;33.17;13.60;;;1.50;99.90;;;-0.66;100.00;100015.13;10441826;27;96609;-83
2023/12/05 14:57:18;;;;;;;28.40;12.70;;;1.50;99.90;;;-0.70;100.00;100013.69;10439993;27;96840;-83
2023/12/05 15:02:23;;;;;;;50.63;19.73;;;1.50;99.90;;;-0.69;100.00;100010.13;10439279;27;96596;-83
2023/12/05 15:07:27;;;;;;;43.70;18.50;;;1.40;99.90;;;-0.72;100.00;100019.00;10446201;27;98232;-83
2023/12/05 15:12:31;;;;;;;41.37;16.90;;;1.40;99.90;;;-0.74;100.00;100017.41;10446570;27;96604;-83
2023/12/05 15:17:35;;;;;;;37.37;16.27;;;1.40;99.90;;;-0.75;100.00;100021.78;10442210;27;96975;-83
2023/12/05 15:22:41;;;;;;;35.83;15.00;;;1.40;99.90;;;-0.75;100.00;100031.41;10446403;27;96626;-83
2023/12/05 15:27:44;;;;;;;28.70;13.37;;;1.40;99.90;;;-0.72;100.00;100026.84;10459272;27;96608;-83
2023/12/05 15:32:53;;;;;;;31.53;12.63;;;1.40;99.90;;;-0.76;100.00;100022.75;10464166;27;96476;-83
2023/12/05 15:37:57;;;;;;;29.20;13.13;;;1.40;99.90;;;-0.72;100.00;100026.84;10461295;27;98380;-83
2023/12/05 15:43:00;;;;;;;27.67;11.83;;;1.40;99.90;;;-0.69;100.00;100031.00;10476816;27;96860;-83
2023/12/05 15:48:05;;;;;;;38.03;15.43;;;1.40;99.90;;;-0.70;100.00;100016.28;10462640;27;96585;-83
2023/12/05 15:53:10;;;;;;;35.87;15.03;;;1.40;99.90;;;-0.66;100.00;100022.97;10457695;27;96772;-83
2023/12/05 15:58:13;;;;;;;30.00;11.97;;;1.50;99.90;;;-0.66;100.00;100017.75;10443422;27;96756;-83
2023/12/05 16:03:17;;;;;;;42.63;14.70;;;1.50;99.90;;;-0.67;100.00;100011.69;10443323;27;96998;-83
2023/12/05 16:08:21;;;;;;;31.13;14.80;;;1.50;99.90;;;-0.69;100.00;100016.19;10462832;27;96622;-83
2023/12/05 16:13:25;;;;;;;39.07;13.60;;;1.50;99.90;;;-0.69;100.00;100015.34;10482081;27;96660;-83
2023/12/05 16:18:29;;;;;;;37.00;15.93;;;1.40;99.90;;;-0.70;100.00;100022.34;10477572;27;96522;-83
2023/12/05 16:23:34;;;;;;;31.40;14.27;;;1.40;99.90;;;-0.72;100.00;100012.91;10485731;27;96757;-83
2023/12/05 16:28:37;;;;;;;34.27;14.43;;;1.50;99.90;;;-0.68;100.00;100017.00;10470770;27;96611;-83
2023/12/05 16:33:41;;;;;;;29.23;14.00;;;1.40;99.90;;;-0.73;100.00;100013.88;10483115;27;96474;-84
2023/12/05 16:38:44;;;;;;;39.13;15.00;;;1.40;99.90;;;-0.71;100.00;100022.44;10471144;27;96515;-83
2023/12/05 16:43:50;;;;;;;29.47;13.87;;;1.40;99.90;;;-0.79;100.00;100011.66;10463508;27;97911;-84
2023/12/05 16:48:53;;;;;;;33.70;14.27;;;1.40;99.90;;;-0.70;100.00;100013.69;10496592;27;97073;-84
2023/12/05 16:53:58;;;;;;;33.97;15.90;;;1.40;99.90;;;-0.76;100.00;100008.84;10463567;27;96630;-84
2023/12/05 16:59:03;;;;;;;34.87;14.60;;;1.40;99.90;;;-0.74;100.00;100013.03;10452296;27;97273;-84
2023/12/05 17:04:06;;;;;;;33.47;14.47;;;1.40;99.90;;;-0.73;100.00;100019.09;10449479;27;97984;-85
2023/12/05 17:09:10;;;;;;;38.27;15.80;;;1.40;99.90;;;-0.76;100.00;100011.47;10439347;27;96531;-84
2023/12/05 17:14:14;;;;;;;36.83;15.80;;;1.40;99.90;;;-0.77;100.00;100015.84;10479950;27;96814;-84
2023/12/05 17:19:17;;;;;;;42.87;18.73;;;1.40;99.90;;;-0.75;100.00;100013.13;10466514;27;96625;-84
2023/12/05 17:24:21;;;;;;;39.57;16.50;;;1.40;99.90;;;-0.75;100.00;100026.19;10454430;27;96490;-84
2023/12/05 17:29:24;;;;;;;38.27;16.10;;;1.40;99.90;;;-0.75;100.00;100015.75;10481598;27;96620;-84
2023/12/05 17:34:28;;;;;;;38.03;14.97;;;1.40;99.90;;;-0.74;100.00;100023.47;10483964;27;96837;-85
2023/12/05 17:39:32;;;;;;;39.50;15.73;;;1.40;99.90;;;-0.73;100.00;100029.53;10455233;27;97706;-85
2023/12/05 17:44:36;;;;;;;41.00;16.47;;;1.40;99.90;;;-0.73;100.00;100019.09;10486451;27;96625;-84
2023/12/05 17:49:40;;;;;;;47.90;16.30;;;1.40;99.90;;;-0.76;100.00;100009.69;10445847;27;96553;-85
2023/12/05 17:54:44;;;;;;;48.57;17.77;;;1.40;99.90;;;-0.83;100.00;100009.25;10462691;27;96625;-85
2023/12/05 17:59:48;;;;;;;36.87;15.47;;;1.30;99.90;;;-0.82;100.00;100021.38;10469951;27;96498;-85
2023/12/05 18:04:53;;;;;;;36.37;14.07;;;1.30;99.90;;;-0.78;100.00;100022.00;10422506;27;96593;-85
2023/12/05 18:09:57;;;;;;;39.97;16.27;;;1.30;99.90;;;-0.78;100.00;100013.31;10420749;27;97434;-85
2023/12/05 18:15:01;;;;;;;38.60;16.27;;;1.30;99.90;;;-0.77;100.00;100022.84;10432691;27;96592;-85
2023/12/05 18:20:08;;;;;;;36.20;15.20;;;1.30;99.90;;;-0.78;100.00;100024.63;10462773;27;96613;-85
2023/12/05 18:25:15;;;;;;;34.57;14.53;;;1.30;99.90;;;-0.83;100.00;100005.81;10445012;27;97194;-85
2023/12/05 18:30:19;;;;;;;29.37;13.37;;;1.30;99.90;;;-0.81;100.00;100016.97;10489809;27;96804;-85
2023/12/05 18:35:22;;;;;;;41.20;16.40;;;1.30;99.90;;;-0.78;100.00;100021.16;10486779;27;96694;-85
2023/12/05 18:40:27;;;;;;;31.27;14.63;;;1.30;99.90;;;-0.83;100.00;100011.03;10446984;27;96640;-85
2023/12/05 18:45:31;;;;;;;38.70;15.10;;;1.30;99.90;;;-0.81;100.00;100016.97;10441396;27;96632;-85
2023/12/05 18:50:35;;;;;;;38.47;15.30;;;1.30;99.90;;;-0.83;100.00;100009.25;10494472;27;96601;-85
2023/12/05 18:55:39;;;;;;;30.57;12.30;;;1.30;99.90;;;-0.76;100.00;100017.53;10486275;27;96549;-85
2023/12/05 19:00:42;;;;;;;30.77;12.40;;;1.30;99.90;;;-0.76;100.00;100014.06;10482709;27;96646;-85
2023/12/05 19:05:49;;;;;;;40.10;15.33;;;1.30;99.90;;;-0.81;100.00;100007.38;10476586;27;96666;-85
2023/12/05 19:10:53;;;;;;;35.00;14.97;;;1.30;99.90;;;-0.81;100.00;100017.81;10453696;27;96454;-85
2023/12/05 19:15:57;;;;;;;33.67;12.97;;;1.30;99.90;;;-0.77;100.00;100017.63;10490065;27;96865;-85
2023/12/05 19:21:06;;;;;;;32.83;14.70;;;1.30;99.90;;;-0.84;100.00;100002.38;10445429;27;96693;-85
2023/12/05 19:26:09;;;;;;;42.37;16.40;;;1.30;99.90;;;-0.83;100.00;100014.47;10494703;27;96673;-85
2023/12/05 19:31:13;;;;;;;30.90;13.80;;;1.20;99.90;;;-0.92;100.00;99993.34;10442824;27;96479;-85
2023/12/05 19:36:16;;;;;;;28.67;13.23;;;1.20;99.90;;;-0.90;100.00;99997.56;10480002;27;97100;-85
2023/12/05 19:41:20;;;;;;;34.00;13.70;;;1.20;99.90;;;-0.88;100.00;100006.13;10452946;27;96586;-85
2023/12/05 19:46:24;;;;;;;32.00;14.20;;;1.20;99.90;;;-0.85;100.00;100010.28;10468705;27;96495;-85
2023/12/05 19:51:32;;;;;;;32.67;14.60;;;1.20;99.90;;;-0.88;100.00;100011.31;10467999;27;96529;-85
2023/12/05 19:56:37;;;;;;;33.50;12.03;;;1.20;99.90;;;-0.87;100.00;100014.78;10455625;27;97634;-85
2023/12/05 20:01:40;;;;;;;35.03;14.53;;;1.20;99.90;;;-0.86;100.00;100017.28;10443270;27;96531;-83
2023/12/05 20:06:44;;;;;;;31.60;14.00;;;1.30;99.90;;;-0.90;100.00;100001.91;10447082;27;96580;-85
2023/12/05 20:11:48;;;;;;;34.93;14.10;;;1.30;99.90;;;-0.90;100.00;100002.78;10463785;27;98213;-85
2023/12/05 20:16:52;;;;;;;34.20;12.87;;;1.20;99.90;;;-0.88;100.00;100010.50;10457102;27;97399;-85
2023/12/05 20:21:55;;;;;;;31.53;13.97;;;1.20;99.90;;;-0.93;100.00;100008.19;10497561;27;96619;-85
2023/12/05 20:26:59;;;;;;;30.87;12.43;;;1.20;99.90;;;-0.86;100.00;100016.44;10480185;27;96590;-85
2023/12/05 20:32:04;;;;;;;35.07;12.73;;;1.20;99.90;;;-0.88;100.00;100013.09;10491785;27;96499;-85